createdAt,value
2022-12-18T00:02:21.050Z,98328.03
2022-12-18T00:07:24.389Z,98323.34
2022-12-18T00:12:29.893Z,98319.25
2022-12-18T00:17:33.687Z,98306.22
2022-12-18T00:22:37.204Z,98314.31
2022-12-18T00:27:40.683Z,98311.84
2022-12-18T00:32:44.042Z,98313.13
2022-12-18T00:37:47.364Z,98307.16
2022-12-18T00:42:50.823Z,98304.13
2022-12-18T00:47:54.684Z,98299.16
2022-12-18T00:52:58.551Z,98291.56
2022-12-18T00:58:02.020Z,98276.19
2022-12-18T01:03:06.764Z,98268.13
2022-12-18T01:08:10.357Z,98272.19
2022-12-18T01:13:13.686Z,98264.25
2022-12-18T01:18:18.043Z,98267.88
2022-12-18T01:23:21.660Z,98269.84
2022-12-18T01:28:25.042Z,98269.97
2022-12-18T01:33:29.617Z,98265.31
2022-12-18T01:38:33.045Z,98274.22
2022-12-18T01:43:48.318Z,98266.81
2022-12-18T01:48:59.253Z,98268.59
2022-12-18T01:54:04.092Z,98275.88
2022-12-18T01:59:11.467Z,98270.94
2022-12-18T02:04:27.863Z,98276.78
2022-12-18T02:09:52.324Z,98266.81
2022-12-18T02:15:01.832Z,98278.06
2022-12-18T02:20:20.739Z,98295.56
2022-12-18T02:25:42.713Z,98283.94
2022-12-18T02:30:50.911Z,98293.69
2022-12-18T02:35:56.760Z,98300.38
2022-12-18T02:41:04.787Z,98296.94
2022-12-18T02:46:35.004Z,98300.25
2022-12-18T02:51:51.464Z,98308.56
2022-12-18T02:57:04.580Z,98318.06
2022-12-18T03:02:22.720Z,98313.84
2022-12-18T03:07:39.622Z,98316.53
2022-12-18T03:13:04.187Z,98331.88
2022-12-18T03:18:21.340Z,98335.19
2022-12-18T03:23:30.710Z,98349.25
2022-12-18T03:28:40.391Z,98354.19
2022-12-18T03:33:56.000Z,98358.97
2022-12-18T03:39:06.916Z,98367.44
2022-12-18T03:44:29.482Z,98367.31
2022-12-18T03:49:57.643Z,98365.44
2022-12-18T03:55:02.968Z,98366.72
2022-12-18T04:00:14.705Z,98371.53
2022-12-18T04:05:34.218Z,98372.13
2022-12-18T04:10:38.693Z,98377.53
2022-12-18T04:15:42.913Z,98382.31
2022-12-18T04:20:50.798Z,98380.91
2022-12-18T04:25:55.156Z,98383.38
2022-12-18T04:31:13.201Z,98394.16
2022-12-18T04:36:16.925Z,98404.69
2022-12-18T04:41:22.715Z,98402.00
2022-12-18T04:46:30.198Z,98411.16
2022-12-18T04:51:33.577Z,98410.22
2022-12-18T04:56:36.858Z,98418.09
2022-12-18T05:01:40.391Z,98421.72
2022-12-18T05:06:43.931Z,98420.06
2022-12-18T05:11:47.167Z,98428.97
2022-12-18T05:16:50.639Z,98434.97
2022-12-18T05:21:54.701Z,98454.44
2022-12-18T05:26:58.160Z,98438.50
2022-12-18T05:32:01.633Z,98453.97
2022-12-18T05:37:05.301Z,98451.03
2022-12-18T05:42:08.692Z,98457.16
2022-12-18T05:47:12.061Z,98452.69
2022-12-18T05:52:16.604Z,98460.44
2022-12-18T05:57:20.759Z,98462.66
2022-12-18T06:02:24.202Z,98458.78
2022-12-18T06:07:27.662Z,98470.97
2022-12-18T06:12:30.913Z,98474.25
2022-12-18T06:17:36.154Z,98470.72
2022-12-18T06:22:39.604Z,98493.88
2022-12-18T06:27:42.995Z,98482.25
2022-12-18T06:32:50.485Z,98494.06
2022-12-18T06:37:56.675Z,98504.75
2022-12-18T06:43:00.008Z,98503.81
2022-12-18T06:48:03.702Z,98501.81
2022-12-18T06:53:07.280Z,98506.06
2022-12-18T06:58:11.041Z,98514.09
2022-12-18T07:03:15.401Z,98511.06
2022-12-18T07:08:19.003Z,98516.31
2022-12-18T07:13:22.476Z,98527.81
2022-12-18T07:18:25.784Z,98507.34
2022-12-18T07:23:30.030Z,98519.97
2022-12-18T07:28:34.547Z,98506.91
2022-12-18T07:33:38.115Z,98507.81
2022-12-18T07:38:41.834Z,98499.06
2022-12-18T07:43:45.608Z,98499.16
2022-12-18T07:48:50.315Z,98497.28
2022-12-18T07:53:59.326Z,98482.56
2022-12-18T07:59:09.091Z,98486.16
2022-12-18T08:04:13.590Z,98480.84
2022-12-18T08:09:17.107Z,98479.13
2022-12-18T08:14:20.397Z,98475.44
2022-12-18T08:19:23.877Z,98461.50
2022-12-18T08:24:27.243Z,98458.59
2022-12-18T08:29:30.710Z,98446.03
2022-12-18T08:34:34.391Z,98439.03
2022-12-18T08:39:37.692Z,98429.94
2022-12-18T08:44:41.072Z,98415.38
2022-12-18T08:49:44.594Z,98420.94
2022-12-18T08:54:47.993Z,98398.75
2022-12-18T08:59:51.468Z,98379.31
2022-12-18T09:04:57.696Z,98375.69
2022-12-18T09:10:01.343Z,98366.00
2022-12-18T09:15:06.536Z,98353.66
2022-12-18T09:20:10.296Z,98341.28
2022-12-18T09:25:13.569Z,98321.53
2022-12-18T09:30:17.164Z,98320.31
2022-12-18T09:35:20.950Z,98323.34
2022-12-18T09:40:30.162Z,98316.03
2022-12-18T09:45:44.861Z,98301.16
2022-12-18T09:50:50.907Z,98305.34
2022-12-18T09:55:54.310Z,98299.50
2022-12-18T10:00:57.821Z,98292.78
2022-12-18T10:06:22.468Z,98284.69
2022-12-18T10:11:34.787Z,98276.06
2022-12-18T10:16:44.804Z,98272.78
2022-12-18T10:22:04.780Z,98261.44
2022-12-18T10:27:16.428Z,98247.03
2022-12-18T10:32:26.430Z,98249.28
2022-12-18T10:37:31.345Z,98240.56
2022-12-18T10:42:36.406Z,98232.97
2022-12-18T10:47:50.979Z,98223.47
2022-12-18T10:53:02.710Z,98220.47
2022-12-18T10:58:26.940Z,98221.06
2022-12-18T11:03:40.867Z,98217.25
2022-12-18T11:09:02.059Z,98212.63
2022-12-18T11:14:22.605Z,98211.28
2022-12-18T11:19:38.085Z,98208.56
2022-12-18T11:24:41.537Z,98201.00
2022-12-18T11:29:46.879Z,98194.72
2022-12-18T11:34:59.178Z,98198.00
2022-12-18T11:40:12.930Z,98198.00
2022-12-18T11:45:29.062Z,98186.84
2022-12-18T11:50:38.206Z,98190.69
2022-12-18T11:55:45.732Z,98191.22
2022-12-18T12:01:10.988Z,98192.03
2022-12-18T12:06:30.719Z,98198.88
2022-12-18T12:11:47.818Z,98200.25
2022-12-18T12:16:56.646Z,98189.91
2022-12-18T12:22:19.594Z,98187.19
2022-12-18T12:27:35.598Z,98191.53
2022-12-18T12:33:13.383Z,98194.81
2022-12-18T12:38:29.916Z,98197.53
2022-12-18T12:49:16.506Z,98186.13
2022-12-18T12:54:26.205Z,98190.75
2022-12-18T12:59:32.470Z,98177.97
2022-12-18T13:04:55.883Z,98195.38
2022-12-18T13:10:27.499Z,98201.34
2022-12-18T13:13:43.137Z,98194.81
2022-12-18T13:15:46.762Z,98190.47
2022-12-18T13:21:03.391Z,98210.56
2022-12-18T13:26:07.404Z,98207.28
2022-12-18T13:31:11.407Z,98208.53
2022-12-18T13:36:24.375Z,98222.84
2022-12-18T13:41:28.835Z,98221.66
2022-12-18T13:46:51.225Z,98221.25
2022-12-18T13:51:56.637Z,98227.03
2022-12-18T13:57:01.134Z,98225.50
2022-12-18T14:02:13.891Z,98227.00
2022-12-18T14:07:20.662Z,98230.91
2022-12-18T14:12:27.553Z,98233.94
2022-12-18T14:17:33.096Z,98228.66
2022-12-18T14:22:37.990Z,98238.22
2022-12-18T14:27:53.176Z,98235.88
2022-12-18T14:33:09.537Z,98243.56
2022-12-18T14:38:19.380Z,98239.34
2022-12-18T14:43:23.327Z,98242.13
2022-12-18T14:48:42.165Z,98252.56
2022-12-18T14:53:52.430Z,98245.94
2022-12-18T14:59:01.142Z,98245.28
2022-12-18T15:04:06.806Z,98246.53
2022-12-18T15:09:27.078Z,98244.81
2022-12-18T15:14:41.789Z,98255.28
2022-12-18T15:19:48.216Z,98244.16
2022-12-18T15:24:52.342Z,98255.72
2022-12-18T15:30:08.188Z,98266.22
2022-12-18T15:35:19.657Z,98259.91
2022-12-18T15:40:25.101Z,98261.69
2022-12-18T15:45:29.169Z,98257.28
2022-12-18T15:50:32.595Z,98270.22
2022-12-18T15:55:36.168Z,98281.50
2022-12-18T16:00:41.755Z,98286.81
2022-12-18T16:05:47.331Z,98285.66
2022-12-18T16:10:51.433Z,98287.75
2022-12-18T16:15:55.381Z,98294.00
2022-12-18T16:21:00.005Z,98291.19
2022-12-18T16:26:03.547Z,98292.16
2022-12-18T16:31:09.156Z,98292.06
2022-12-18T16:36:13.171Z,98299.25
2022-12-18T16:41:21.419Z,98304.78
2022-12-18T16:46:24.796Z,98313.03
2022-12-18T16:51:29.124Z,98318.16
2022-12-18T16:56:32.893Z,98313.25
2022-12-18T17:01:36.551Z,98316.53
2022-12-18T17:06:45.725Z,98310.19
2022-12-18T17:11:49.325Z,98312.97
2022-12-18T17:17:19.681Z,98317.31
2022-12-18T17:22:17.855Z,98320.84
2022-12-18T17:27:23.285Z,98309.69
2022-12-18T17:32:27.323Z,98314.25
2022-12-18T17:37:30.944Z,98317.78
2022-12-18T17:42:34.843Z,98317.88
2022-12-18T17:47:41.323Z,98315.84
2022-12-18T17:52:47.548Z,98302.34
2022-12-18T17:57:51.210Z,98306.66
2022-12-18T18:02:54.974Z,98309.72
2022-12-18T18:07:58.598Z,98313.50
2022-12-18T18:13:01.930Z,98310.19
2022-12-18T18:18:05.568Z,98313.34
2022-12-18T18:23:08.919Z,98312.19
2022-12-18T18:28:12.599Z,98317.75
2022-12-18T18:33:16.166Z,98319.88
2022-12-18T18:38:19.559Z,98321.50
2022-12-18T18:43:23.011Z,98310.81
2022-12-18T18:48:28.052Z,98305.97
2022-12-18T18:53:41.817Z,98305.25
2022-12-18T18:58:45.908Z,98311.22
2022-12-18T19:03:49.924Z,98311.72
2022-12-18T19:08:55.566Z,98315.59
2022-12-18T19:14:00.700Z,98323.63
2022-12-18T19:19:04.803Z,98327.31
2022-12-18T19:24:10.200Z,98331.53
2022-12-18T19:29:14.652Z,98325.78
2022-12-18T19:34:18.311Z,98322.50
2022-12-18T19:39:25.109Z,98320.31
2022-12-18T19:44:28.940Z,98314.31
2022-12-18T19:49:33.879Z,98315.63
2022-12-18T19:54:40.954Z,98309.28
2022-12-18T19:59:44.440Z,98305.78
2022-12-18T20:04:49.422Z,98306.25
2022-12-18T20:10:01.428Z,98303.47
2022-12-18T20:15:08.505Z,98294.44
2022-12-18T20:20:11.992Z,98293.25
2022-12-18T20:25:17.084Z,98290.56
2022-12-18T20:30:21.449Z,98273.81
2022-12-18T20:35:24.928Z,98272.50
2022-12-18T20:40:30.216Z,98263.59
2022-12-18T20:45:33.771Z,98244.94
2022-12-18T20:50:38.655Z,98236.28
2022-12-18T20:55:44.923Z,98236.50
2022-12-18T21:00:48.582Z,98232.06
2022-12-18T21:05:52.178Z,98226.00
2022-12-18T21:10:56.756Z,98216.41
2022-12-18T21:16:02.109Z,98226.25
2022-12-18T21:21:06.779Z,98222.38
2022-12-18T21:26:23.434Z,98219.69
2022-12-18T21:31:29.556Z,98221.56
2022-12-18T21:36:34.720Z,98208.69
2022-12-18T21:41:42.034Z,98206.81
2022-12-18T21:46:51.512Z,98206.66
2022-12-18T21:52:00.697Z,98199.03
2022-12-18T21:57:08.466Z,98194.72
2022-12-18T22:02:20.540Z,98189.00
2022-12-18T22:07:24.251Z,98181.38
2022-12-18T22:12:27.336Z,98188.19
2022-12-18T22:17:30.635Z,98187.72
2022-12-18T22:22:33.936Z,98200.28
2022-12-18T22:27:37.768Z,98190.78
2022-12-18T22:32:41.036Z,98191.72
2022-12-18T22:37:44.477Z,98191.84
2022-12-18T22:42:47.860Z,98198.75
2022-12-18T22:47:54.073Z,98196.06
2022-12-18T22:52:57.464Z,98197.13
2022-12-18T22:58:00.816Z,98190.34
2022-12-18T23:03:04.786Z,98191.41
2022-12-18T23:08:10.743Z,98178.16
2022-12-18T23:13:14.267Z,98179.81
2022-12-18T23:18:17.794Z,98177.81
2022-12-18T23:23:21.208Z,98182.97
2022-12-18T23:28:25.071Z,98194.31
2022-12-18T23:33:30.497Z,98183.44
2022-12-18T23:38:34.538Z,98194.22
2022-12-18T23:43:38.590Z,98192.47
2022-12-18T23:48:42.052Z,98178.88
2022-12-18T23:53:45.674Z,98179.56
2022-12-18T23:58:49.554Z,98179.22
